Terminal Aerodrome Forecast
Issued by NWS Glasgow, MT

Home | Current Version | Previous Version | Text Only | Print | Product List | Glossary On
Versions: 1 2 3 4 5 6 7 8 9 10 11 12 13
000
FTUS45 KGGW 160500
TAFGGW
TAF
KGGW 160520Z 1606/1706 03011KT P6SM VCSH BKN140
     FM161200 04010KT P6SM OVC030
     FM161800 09010KT P6SM OVC050=

USA.gov is the U.S. government's official web portal to all federal, state and local government web resources and services.